createdAt,value
2022-09-14T00:01:24.841Z,1.50
2022-09-14T00:03:53.354Z,1.33
2022-09-14T00:06:20.245Z,1.75
2022-09-14T00:08:49.969Z,1.52
2022-09-14T00:11:16.593Z,1.58
2022-09-14T00:13:44.470Z,1.67
2022-09-14T00:16:14.147Z,1.67
2022-09-14T00:18:40.997Z,1.73
2022-09-14T00:21:08.570Z,1.80
2022-09-14T00:23:35.978Z,1.48
2022-09-14T00:26:07.373Z,1.40
2022-09-14T00:28:40.553Z,1.50
2022-09-14T00:31:07.415Z,1.75
2022-09-14T00:33:34.035Z,1.52
2022-09-14T00:36:20.862Z,1.98
2022-09-14T00:38:47.753Z,1.65
2022-09-14T00:41:19.375Z,1.60
2022-09-14T00:44:07.729Z,1.60
2022-09-14T00:46:37.785Z,1.70
2022-09-14T00:49:06.605Z,1.55
2022-09-14T00:51:33.280Z,2.15
2022-09-14T00:54:03.622Z,1.80
2022-09-14T00:56:31.021Z,1.50
2022-09-14T00:58:58.122Z,1.63
2022-09-14T01:01:26.022Z,1.80
2022-09-14T01:03:53.123Z,1.77
2022-09-14T01:06:25.556Z,1.80
2022-09-14T01:09:04.347Z,1.92
2022-09-14T01:11:50.938Z,1.50
2022-09-14T01:14:46.162Z,1.58
2022-09-14T01:17:18.649Z,1.52
2022-09-14T01:20:00.279Z,2.38
2022-09-14T01:22:49.405Z,1.90
2022-09-14T01:25:34.790Z,1.95
2022-09-14T01:28:02.283Z,1.60
2022-09-14T01:30:28.907Z,1.60
2022-09-14T01:33:07.613Z,2.30
2022-09-14T01:35:37.377Z,2.17
2022-09-14T01:38:08.788Z,1.98
2022-09-14T01:40:43.650Z,2.40
2022-09-14T01:43:22.766Z,1.73
2022-09-14T01:46:01.112Z,1.65
2022-09-14T01:48:32.522Z,2.40
2022-09-14T01:50:59.636Z,2.13
2022-09-14T01:53:48.790Z,2.40
2022-09-14T01:56:30.614Z,1.98
2022-09-14T01:59:13.880Z,2.05
2022-09-14T02:01:46.386Z,1.38
2022-09-14T02:04:18.676Z,1.90
2022-09-14T02:06:47.014Z,2.00
2022-09-14T02:09:16.449Z,1.83
2022-09-14T02:11:43.099Z,1.63
2022-09-14T02:14:09.677Z,1.70
2022-09-14T02:16:36.439Z,1.60
2022-09-14T02:19:04.402Z,1.92
2022-09-14T02:21:32.037Z,2.03
2022-09-14T02:23:59.206Z,1.73
2022-09-14T02:26:25.880Z,1.73
2022-09-14T02:28:52.534Z,1.50
2022-09-14T02:31:28.266Z,1.67
2022-09-14T02:34:03.562Z,1.50
2022-09-14T02:37:01.107Z,1.63
2022-09-14T02:39:37.858Z,1.75
2022-09-14T02:42:25.411Z,1.75
2022-09-14T02:45:19.914Z,1.60
2022-09-14T02:48:08.360Z,1.70
2022-09-14T02:50:34.890Z,2.45
2022-09-14T02:53:19.410Z,1.85
2022-09-14T02:55:49.564Z,1.88
2022-09-14T02:58:16.175Z,2.20
2022-09-14T03:00:48.652Z,1.98
2022-09-14T03:03:17.846Z,1.65
2022-09-14T03:05:44.594Z,1.98
2022-09-14T03:08:11.483Z,1.77
2022-09-14T03:10:38.245Z,2.00
2022-09-14T03:13:04.993Z,1.85
2022-09-14T03:15:31.678Z,1.77
2022-09-14T03:17:58.314Z,1.70
2022-09-14T03:20:26.547Z,1.52
2022-09-14T03:22:53.154Z,1.65
2022-09-14T03:25:19.748Z,1.63
2022-09-14T03:27:54.751Z,1.58
2022-09-14T03:30:21.544Z,1.48
2022-09-14T03:32:48.270Z,2.10
2022-09-14T03:35:15.753Z,2.25
2022-09-14T03:37:42.948Z,1.83
2022-09-14T03:40:10.598Z,2.03
2022-09-14T03:42:40.085Z,1.92
2022-09-14T03:45:07.299Z,1.98
2022-09-14T03:47:33.983Z,1.98
2022-09-14T03:50:00.611Z,2.08
2022-09-14T03:52:27.198Z,2.20
2022-09-14T03:54:53.904Z,2.00
2022-09-14T03:57:20.652Z,1.75
2022-09-14T03:59:47.432Z,1.80
2022-09-14T04:02:14.211Z,2.08
2022-09-14T04:04:40.865Z,2.70
2022-09-14T04:07:07.455Z,3.10
2022-09-14T04:09:34.148Z,2.85
2022-09-14T04:12:00.834Z,2.22
2022-09-14T04:14:27.536Z,2.65
2022-09-14T04:16:54.090Z,2.55
2022-09-14T04:19:20.710Z,2.92
2022-09-14T04:21:47.361Z,2.42
2022-09-14T04:24:16.209Z,2.70
2022-09-14T04:26:43.565Z,2.22
2022-09-14T04:29:10.368Z,2.33
2022-09-14T04:31:37.060Z,3.30
2022-09-14T04:34:03.850Z,2.90
2022-09-14T04:36:30.426Z,2.55
2022-09-14T04:38:58.877Z,2.30
2022-09-14T04:41:25.635Z,2.25
2022-09-14T04:43:52.538Z,2.28
2022-09-14T04:46:24.009Z,2.60
2022-09-14T04:48:50.883Z,3.08
2022-09-14T04:51:19.551Z,3.17
2022-09-14T04:53:47.846Z,2.85
2022-09-14T04:56:15.988Z,3.50
2022-09-14T04:58:51.253Z,3.40
2022-09-14T05:01:20.005Z,3.60
2022-09-14T05:03:46.725Z,3.95
2022-09-14T05:06:15.089Z,3.63
2022-09-14T05:08:42.184Z,3.78
2022-09-14T05:11:09.787Z,3.65
2022-09-14T05:13:36.380Z,3.03
2022-09-14T05:16:09.632Z,3.10
2022-09-14T05:18:36.502Z,3.72
2022-09-14T05:21:08.281Z,3.00
2022-09-14T05:23:35.336Z,4.28
2022-09-14T05:26:02.203Z,3.80
2022-09-14T05:28:28.796Z,3.25
2022-09-14T05:30:55.382Z,2.85
2022-09-14T05:33:22.174Z,3.42
2022-09-14T05:35:49.677Z,3.67
2022-09-14T05:38:16.285Z,3.25
2022-09-14T05:40:42.890Z,3.40
2022-09-14T05:43:09.528Z,3.90
2022-09-14T05:45:36.325Z,3.90
2022-09-14T05:48:03.801Z,4.22
2022-09-14T05:50:31.950Z,3.50
2022-09-14T05:52:58.596Z,3.33
2022-09-14T05:55:25.625Z,2.72
2022-09-14T05:57:52.365Z,3.13
2022-09-14T06:00:19.117Z,7.35
2022-09-14T06:02:47.009Z,9.70
2022-09-14T06:05:13.802Z,5.90
2022-09-14T06:07:40.523Z,4.07
2022-09-14T06:10:07.627Z,4.15
2022-09-14T06:12:34.267Z,4.10
2022-09-14T06:15:00.847Z,4.28
2022-09-14T06:17:29.671Z,2.80
2022-09-14T06:19:56.224Z,3.95
2022-09-14T06:22:22.818Z,3.50
2022-09-14T06:24:49.405Z,3.92
2022-09-14T06:27:16.022Z,3.92
2022-09-14T06:29:42.648Z,3.75
2022-09-14T06:32:09.318Z,3.53
2022-09-14T06:34:35.965Z,3.30
2022-09-14T06:37:02.644Z,3.33
2022-09-14T06:39:29.309Z,3.55
2022-09-14T06:41:55.907Z,3.67
2022-09-14T06:44:22.520Z,3.22
2022-09-14T06:46:49.084Z,4.00
2022-09-14T06:49:15.832Z,3.78
2022-09-14T06:51:43.997Z,4.10
2022-09-14T06:54:11.711Z,3.58
2022-09-14T06:56:39.970Z,3.83
2022-09-14T06:59:07.541Z,3.65
2022-09-14T07:01:34.327Z,3.45
2022-09-14T07:04:01.119Z,3.38
2022-09-14T07:06:38.803Z,4.25
2022-09-14T07:09:05.469Z,3.78
2022-09-14T07:11:38.031Z,3.70
2022-09-14T07:14:04.837Z,3.97
2022-09-14T07:16:32.498Z,3.78
2022-09-14T07:19:01.054Z,4.30
2022-09-14T07:21:27.784Z,3.80
2022-09-14T07:23:54.500Z,3.38
2022-09-14T07:26:25.902Z,4.18
2022-09-14T07:28:58.260Z,4.50
2022-09-14T07:31:26.833Z,3.45
2022-09-14T07:34:00.255Z,4.13
2022-09-14T07:36:29.440Z,3.30
2022-09-14T07:38:58.342Z,4.38
2022-09-14T07:41:29.104Z,4.03
2022-09-14T07:43:56.973Z,4.30
2022-09-14T07:46:23.834Z,4.30
2022-09-14T07:48:55.229Z,3.95
2022-09-14T07:51:21.884Z,4.90
2022-09-14T07:53:48.492Z,4.85
2022-09-14T07:56:15.232Z,4.15
2022-09-14T07:58:42.472Z,4.22
2022-09-14T08:01:10.966Z,4.88
2022-09-14T08:03:37.854Z,4.25
2022-09-14T08:06:06.638Z,4.20
2022-09-14T08:08:34.529Z,3.92
2022-09-14T08:11:11.101Z,3.90
2022-09-14T08:13:38.811Z,4.25
2022-09-14T08:16:05.704Z,4.88
2022-09-14T08:18:32.800Z,4.70
2022-09-14T08:21:07.333Z,4.00
2022-09-14T08:23:34.332Z,4.27
2022-09-14T08:26:08.963Z,4.03
2022-09-14T08:28:35.777Z,3.95
2022-09-14T08:31:04.213Z,4.50
2022-09-14T08:33:33.934Z,4.53
2022-09-14T08:36:00.756Z,4.43
2022-09-14T08:38:27.531Z,4.63
2022-09-14T08:40:54.220Z,4.50
2022-09-14T08:43:21.980Z,4.57
2022-09-14T08:45:48.882Z,4.40
2022-09-14T08:48:36.181Z,3.67
2022-09-14T08:51:04.988Z,3.88
2022-09-14T08:53:31.954Z,3.75
2022-09-14T08:56:09.945Z,3.47
2022-09-14T08:58:55.217Z,3.28
2022-09-14T09:01:30.634Z,3.13
2022-09-14T09:04:12.319Z,3.22
2022-09-14T09:06:58.753Z,3.40
2022-09-14T09:09:30.234Z,3.42
2022-09-14T09:11:57.069Z,3.47
2022-09-14T09:14:35.568Z,3.35
2022-09-14T09:17:12.342Z,3.45
2022-09-14T09:19:46.051Z,2.70
2022-09-14T09:22:15.923Z,2.85
2022-09-14T09:24:45.242Z,3.45
2022-09-14T09:27:12.776Z,3.60
2022-09-14T09:29:39.801Z,3.38
2022-09-14T09:32:08.081Z,2.92
2022-09-14T09:34:34.777Z,2.95
2022-09-14T09:37:01.465Z,3.00
2022-09-14T09:39:30.321Z,3.03
2022-09-14T09:42:13.835Z,2.60
2022-09-14T09:45:03.311Z,2.42
2022-09-14T09:47:32.004Z,2.13
2022-09-14T09:50:00.294Z,2.33
2022-09-14T09:52:27.249Z,2.13
2022-09-14T09:54:54.438Z,2.38
2022-09-14T09:57:21.024Z,2.30
2022-09-14T09:59:47.727Z,1.92
2022-09-14T10:02:29.460Z,1.98
2022-09-14T10:05:00.252Z,1.80
2022-09-14T10:07:27.064Z,1.73
2022-09-14T10:10:07.897Z,2.00
2022-09-14T10:12:35.000Z,1.80
2022-09-14T10:15:28.666Z,1.90
2022-09-14T10:18:08.625Z,1.50
2022-09-14T10:20:40.133Z,1.70
2022-09-14T10:23:26.854Z,1.70
2022-09-14T10:26:14.099Z,1.63
2022-09-14T10:28:42.520Z,1.73
2022-09-14T10:31:15.098Z,1.30
2022-09-14T10:33:42.142Z,1.58
2022-09-14T10:36:17.954Z,1.73
2022-09-14T10:38:51.625Z,1.45
2022-09-14T10:41:49.098Z,1.40
2022-09-14T10:44:27.977Z,1.52
2022-09-14T10:47:12.558Z,1.40
2022-09-14T10:49:57.609Z,1.83
2022-09-14T10:52:48.865Z,1.65
2022-09-14T10:55:24.837Z,1.20
2022-09-14T10:57:57.692Z,1.70
2022-09-14T11:00:24.479Z,1.40
2022-09-14T11:03:20.527Z,1.80
2022-09-14T11:05:51.923Z,1.50
2022-09-14T11:08:31.266Z,1.55
2022-09-14T11:11:14.384Z,1.40
2022-09-14T11:13:50.441Z,1.70
2022-09-14T11:16:50.988Z,1.38
2022-09-14T11:19:35.834Z,1.50
2022-09-14T11:22:24.436Z,1.50
2022-09-14T11:25:05.872Z,1.63
2022-09-14T11:27:38.081Z,1.25
2022-09-14T11:30:10.199Z,1.55
2022-09-14T11:32:45.245Z,1.40
2022-09-14T11:37:59.569Z,1.30
2022-09-14T11:40:33.365Z,1.50
2022-09-14T11:43:08.723Z,1.83
2022-09-14T11:45:49.130Z,1.50
2022-09-14T11:48:44.343Z,1.33
2022-09-14T11:51:17.392Z,1.20
2022-09-14T11:53:44.139Z,1.20
2022-09-14T11:56:25.585Z,1.35
2022-09-14T11:58:58.200Z,1.27
2022-09-14T12:01:40.392Z,1.40
2022-09-14T12:04:11.267Z,1.20
2022-09-14T12:06:37.837Z,1.30
2022-09-14T12:09:16.477Z,1.10
2022-09-14T12:11:49.281Z,1.02
2022-09-14T12:14:24.931Z,1.00
2022-09-14T12:17:35.688Z,1.08
2022-09-14T12:20:25.713Z,1.23
2022-09-14T12:22:52.679Z,1.10
2022-09-14T12:25:20.300Z,1.10
2022-09-14T12:27:48.215Z,1.30
2022-09-14T12:30:37.025Z,1.08
2022-09-14T12:33:31.751Z,1.33
2022-09-14T12:36:08.254Z,1.25
2022-09-14T12:38:38.354Z,1.10
2022-09-14T12:41:10.868Z,1.20
2022-09-14T12:43:37.385Z,1.13
2022-09-14T12:46:11.526Z,1.00
2022-09-14T12:48:47.234Z,1.00
2022-09-14T12:51:25.868Z,1.15
2022-09-14T12:53:58.112Z,1.13
2022-09-14T12:56:33.806Z,0.98
2022-09-14T12:59:24.803Z,1.00
2022-09-14T13:02:38.736Z,1.20
2022-09-14T13:05:05.622Z,1.10
2022-09-14T13:07:33.308Z,1.08
2022-09-14T13:10:00.905Z,1.08
2022-09-14T13:12:30.424Z,1.08
2022-09-14T13:15:00.694Z,1.08
2022-09-14T13:17:27.386Z,1.38
2022-09-14T13:19:58.368Z,1.30
2022-09-14T13:22:26.748Z,1.05
2022-09-14T13:24:53.426Z,0.98
2022-09-14T13:27:33.353Z,0.98
2022-09-14T13:30:07.269Z,1.13
2022-09-14T13:32:41.540Z,1.10
2022-09-14T13:35:16.024Z,1.23
2022-09-14T13:37:47.567Z,0.70
2022-09-14T13:40:14.935Z,1.05
2022-09-14T13:42:41.605Z,0.82
2022-09-14T13:45:08.663Z,1.05
2022-09-14T13:47:35.406Z,1.10
2022-09-14T13:50:02.084Z,1.05
2022-09-14T13:52:50.155Z,1.02
2022-09-14T13:55:25.108Z,0.95
2022-09-14T13:58:10.042Z,1.00
2022-09-14T14:00:55.777Z,1.10
2022-09-14T14:03:26.607Z,1.00
2022-09-14T14:05:53.956Z,1.20
2022-09-14T14:08:26.735Z,1.05
2022-09-14T14:10:53.356Z,1.00
2022-09-14T14:13:31.332Z,1.35
2022-09-14T14:16:15.397Z,1.08
2022-09-14T14:18:43.165Z,0.90
2022-09-14T14:21:12.721Z,1.20
2022-09-14T14:23:51.275Z,1.30
2022-09-14T14:26:26.637Z,1.00
2022-09-14T14:28:54.214Z,1.00
2022-09-14T14:31:21.652Z,1.40
2022-09-14T14:33:51.679Z,1.20
2022-09-14T14:36:18.296Z,1.00
2022-09-14T14:38:45.325Z,1.00
2022-09-14T14:41:18.111Z,1.10
2022-09-14T14:43:44.940Z,1.00
2022-09-14T14:46:11.804Z,1.02
2022-09-14T14:48:38.523Z,1.27
2022-09-14T14:51:05.695Z,0.98
2022-09-14T14:53:32.424Z,1.08
2022-09-14T14:55:59.030Z,0.90
2022-09-14T14:58:25.665Z,0.98
2022-09-14T15:00:52.331Z,1.00
2022-09-14T15:03:19.155Z,0.98
2022-09-14T15:05:46.624Z,1.10
2022-09-14T15:08:14.402Z,0.88
2022-09-14T15:10:41.210Z,0.90
2022-09-14T15:13:08.040Z,1.00
2022-09-14T15:15:34.682Z,1.23
2022-09-14T15:18:01.319Z,1.00
2022-09-14T15:20:28.206Z,1.20
2022-09-14T15:22:54.947Z,0.98
2022-09-14T15:25:21.970Z,0.90
2022-09-14T15:27:48.610Z,1.05
2022-09-14T15:30:15.796Z,1.23
2022-09-14T15:32:42.457Z,1.50
2022-09-14T15:35:11.393Z,1.20
2022-09-14T15:37:38.053Z,1.30
2022-09-14T15:40:05.169Z,1.50
2022-09-14T15:42:32.128Z,1.38
2022-09-14T15:44:58.800Z,1.70
2022-09-14T15:47:25.398Z,1.50
2022-09-14T15:49:52.364Z,1.20
2022-09-14T15:52:19.512Z,1.40
2022-09-14T15:54:46.168Z,1.50
2022-09-14T15:57:12.850Z,1.60
2022-09-14T15:59:39.638Z,1.70
2022-09-14T16:02:06.423Z,1.50
2022-09-14T16:04:36.682Z,1.25
2022-09-14T16:07:03.595Z,1.70
2022-09-14T16:09:30.295Z,1.90
2022-09-14T16:12:01.023Z,1.38
2022-09-14T16:14:28.440Z,1.70
2022-09-14T16:16:55.497Z,1.73
2022-09-14T16:19:22.183Z,1.40
2022-09-14T16:21:53.478Z,1.30
2022-09-14T16:24:20.679Z,1.10
2022-09-14T16:26:47.395Z,1.30
2022-09-14T16:29:15.003Z,0.88
2022-09-14T16:31:42.638Z,1.10
2022-09-14T16:34:13.274Z,0.95
2022-09-14T16:36:40.379Z,0.80
2022-09-14T16:39:10.318Z,0.80
2022-09-14T16:41:37.181Z,0.80
2022-09-14T16:44:04.082Z,0.68
2022-09-14T16:46:31.537Z,0.80
2022-09-14T16:48:58.255Z,0.70
2022-09-14T16:51:25.782Z,0.80
2022-09-14T16:53:52.691Z,0.82
2022-09-14T16:56:20.875Z,0.80
2022-09-14T16:58:48.549Z,0.55
2022-09-14T17:01:16.046Z,0.82
2022-09-14T17:03:43.096Z,0.70
2022-09-14T17:06:13.768Z,0.75
2022-09-14T17:08:43.625Z,0.60
2022-09-14T17:11:10.894Z,0.57
2022-09-14T17:13:37.580Z,0.82
2022-09-14T17:16:10.821Z,0.70
2022-09-14T17:18:38.375Z,0.63
2022-09-14T17:21:10.011Z,0.80
2022-09-14T17:23:36.752Z,0.70
2022-09-14T17:26:04.933Z,0.70
2022-09-14T17:28:31.704Z,0.80
2022-09-14T17:31:00.008Z,0.77
2022-09-14T17:33:26.928Z,0.90
2022-09-14T17:39:23.828Z,0.90
2022-09-14T17:41:50.849Z,0.80
2022-09-14T17:44:17.453Z,0.70
2022-09-14T17:46:52.126Z,0.77
2022-09-14T17:49:21.336Z,0.70
2022-09-14T17:51:47.971Z,0.73
2022-09-14T17:54:14.604Z,0.80
2022-09-14T17:56:41.263Z,0.80
2022-09-14T17:59:13.452Z,0.70
2022-09-14T18:01:40.030Z,0.70
2022-09-14T18:04:08.474Z,0.80
2022-09-14T18:06:37.589Z,0.90
2022-09-14T18:09:06.433Z,0.80
2022-09-14T18:11:33.610Z,1.00
2022-09-14T18:14:00.228Z,0.90
2022-09-14T18:16:27.024Z,1.00
2022-09-14T18:18:53.661Z,1.00
2022-09-14T18:21:20.362Z,0.90
2022-09-14T18:23:50.678Z,0.80
2022-09-14T18:26:17.444Z,0.68
2022-09-14T18:28:44.218Z,0.80
2022-09-14T18:31:12.774Z,0.70
2022-09-14T18:33:39.403Z,0.90
2022-09-14T18:36:06.497Z,0.95
2022-09-14T18:38:33.244Z,1.00
2022-09-14T18:41:05.796Z,1.10
2022-09-14T18:43:32.750Z,0.80
2022-09-14T18:45:59.489Z,0.70
2022-09-14T18:48:26.170Z,0.98
2022-09-14T18:50:52.746Z,1.08
2022-09-14T18:53:19.975Z,0.98
2022-09-14T18:55:46.602Z,0.77
2022-09-14T18:58:13.189Z,0.90
2022-09-14T19:00:42.850Z,0.68
2022-09-14T19:03:10.030Z,0.93
2022-09-14T19:05:39.128Z,0.95
2022-09-14T19:08:05.737Z,0.80
2022-09-14T19:10:32.401Z,1.05
2022-09-14T19:12:59.002Z,0.90
2022-09-14T19:15:28.614Z,0.98
2022-09-14T19:17:57.345Z,1.10
2022-09-14T19:20:24.644Z,0.88
2022-09-14T19:22:51.560Z,1.00
2022-09-14T19:25:19.694Z,1.05
2022-09-14T19:27:46.733Z,0.77
2022-09-14T19:30:13.712Z,1.13
2022-09-14T19:32:40.557Z,1.13
2022-09-14T19:35:07.637Z,0.68
2022-09-14T19:37:34.281Z,0.82
2022-09-14T19:40:01.097Z,0.80
2022-09-14T19:42:27.841Z,0.88
2022-09-14T19:44:54.543Z,1.00
2022-09-14T19:47:21.330Z,0.77
2022-09-14T19:49:48.010Z,0.95
2022-09-14T19:52:14.708Z,0.80
2022-09-14T19:54:41.322Z,0.77
2022-09-14T19:57:07.924Z,0.80
2022-09-14T19:59:34.536Z,0.70
2022-09-14T20:02:01.242Z,0.75
2022-09-14T20:04:28.310Z,0.70
2022-09-14T20:06:54.874Z,0.70
2022-09-14T20:09:22.866Z,0.77
2022-09-14T20:11:50.162Z,0.80
2022-09-14T20:14:18.626Z,0.80
2022-09-14T20:16:47.408Z,0.80
2022-09-14T20:19:15.712Z,0.80
2022-09-14T20:21:42.733Z,0.70
2022-09-14T20:24:16.288Z,0.73
2022-09-14T20:26:50.439Z,0.70
2022-09-14T20:29:18.573Z,0.70
2022-09-14T20:31:45.335Z,0.70
2022-09-14T20:34:12.034Z,0.65
2022-09-14T20:36:39.000Z,0.77
2022-09-14T20:39:05.707Z,0.75
2022-09-14T20:41:33.401Z,0.60
2022-09-14T20:44:00.037Z,0.60
2022-09-14T20:46:35.326Z,0.80
2022-09-14T20:49:02.782Z,1.00
2022-09-14T20:51:29.389Z,0.80
2022-09-14T20:53:56.049Z,0.70
2022-09-14T20:56:25.024Z,0.70
2022-09-14T20:58:56.238Z,0.75
2022-09-14T21:01:25.552Z,0.85
2022-09-14T21:03:52.510Z,0.90
2022-09-14T21:06:21.451Z,0.63
2022-09-14T21:08:48.394Z,0.50
2022-09-14T21:11:17.524Z,0.60
2022-09-14T21:13:44.508Z,0.60
2022-09-14T21:16:12.976Z,0.70
2022-09-14T21:18:39.872Z,0.60
2022-09-14T21:21:16.876Z,0.68
2022-09-14T21:23:43.821Z,0.70
2022-09-14T21:26:10.910Z,0.73
2022-09-14T21:28:38.595Z,0.80
2022-09-14T21:31:14.172Z,0.80
2022-09-14T21:33:42.342Z,0.80
2022-09-14T21:36:16.132Z,0.60
2022-09-14T21:38:42.862Z,0.57
2022-09-14T21:41:10.646Z,0.70
2022-09-14T21:43:38.242Z,0.80
2022-09-14T21:46:05.472Z,0.70
2022-09-14T21:48:32.744Z,1.02
2022-09-14T21:51:06.690Z,0.80
2022-09-14T21:53:33.615Z,0.95
2022-09-14T21:56:03.114Z,0.90
2022-09-14T21:58:30.119Z,0.80
2022-09-14T22:00:58.111Z,0.90
2022-09-14T22:03:24.972Z,0.90
2022-09-14T22:05:58.647Z,1.02
2022-09-14T22:08:25.432Z,0.80
2022-09-14T22:10:52.038Z,0.80
2022-09-14T22:13:18.636Z,1.00
2022-09-14T22:15:45.262Z,0.90
2022-09-14T22:18:12.163Z,0.95
2022-09-14T22:20:38.883Z,1.20
2022-09-14T22:23:05.660Z,1.00
2022-09-14T22:25:32.206Z,0.90
2022-09-14T22:27:58.853Z,1.10
2022-09-14T22:30:25.645Z,1.20
2022-09-14T22:32:52.251Z,1.15
2022-09-14T22:35:18.848Z,1.38
2022-09-14T22:37:45.515Z,1.10
2022-09-14T22:40:12.187Z,1.20
2022-09-14T22:42:38.929Z,1.35
2022-09-14T22:45:06.189Z,1.27
2022-09-14T22:47:32.870Z,1.27
2022-09-14T22:49:59.488Z,1.02
2022-09-14T22:52:26.050Z,1.30
2022-09-14T22:54:52.688Z,1.50
2022-09-14T22:57:19.301Z,1.20
2022-09-14T22:59:46.288Z,1.27
2022-09-14T23:02:12.971Z,1.05
2022-09-14T23:04:39.544Z,1.08
2022-09-14T23:07:06.093Z,1.13
2022-09-14T23:09:32.633Z,1.17
2022-09-14T23:11:59.236Z,1.10
2022-09-14T23:14:26.262Z,1.20
2022-09-14T23:16:52.974Z,1.33
2022-09-14T23:19:19.974Z,1.20
2022-09-14T23:21:46.821Z,1.17
2022-09-14T23:24:13.805Z,1.20
2022-09-14T23:26:40.412Z,1.20
2022-09-14T23:29:08.502Z,1.20
2022-09-14T23:31:35.240Z,1.20
2022-09-14T23:34:02.543Z,1.27
2022-09-14T23:36:29.496Z,1.30
2022-09-14T23:38:56.149Z,1.15
2022-09-14T23:41:23.386Z,1.30
2022-09-14T23:43:50.230Z,1.20
2022-09-14T23:46:18.598Z,1.45
2022-09-14T23:48:45.335Z,1.20
2022-09-14T23:51:12.453Z,1.40
2022-09-14T23:53:39.047Z,1.30
2022-09-14T23:56:05.911Z,1.40
2022-09-14T23:58:32.618Z,1.40
